Time;durP1;ratioP1;P1;durP2;ratioP2;P2;SDS_P1;SDS_P2;PMS_P1;PMS_P2;Temp;Humidity;BMP_temperature;BMP_pressure;BME280_temperature;BME280_humidity;BME280_pressure;Samples;Min_cycle;Max_cycle;Signal;HPM_P1;HPM_P2
2021/12/08 00:02:17;;;;;;;0.35;0.35;;;4.60;92.40;;;;;;4769501;30;20105;-81
2021/12/08 00:04:44;;;;;;;0.95;0.47;;;4.60;92.40;;;;;;4774897;29;20034;-81
2021/12/08 00:07:10;;;;;;;0.63;0.30;;;4.60;92.50;;;;;;4872192;29;20149;-81
2021/12/08 00:09:49;;;;;;;1.05;0.60;;;4.60;92.50;;;;;;4847891;29;20045;-81
2021/12/08 00:14:59;;;;;;;0.50;0.50;;;4.60;92.50;;;;;;4880097;29;20079;-81
2021/12/08 00:17:25;;;;;;;2.03;0.40;;;4.60;92.50;;;;;;4863968;29;20037;-81
2021/12/08 00:19:51;;;;;;;1.65;0.50;;;4.60;92.50;;;;;;4863970;29;20044;-81
2021/12/08 00:22:17;;;;;;;0.70;0.50;;;4.60;92.50;;;;;;4863745;29;20033;-80
2021/12/08 00:24:44;;;;;;;0.80;0.70;;;4.60;92.50;;;;;;4848468;29;20544;-81
2021/12/08 00:27:11;;;;;;;0.93;0.80;;;4.70;92.50;;;;;;4863921;29;20400;-81
2021/12/08 00:29:37;;;;;;;1.65;0.75;;;4.60;92.50;;;;;;4896254;29;20048;-81
2021/12/08 00:32:03;;;;;;;2.17;0.40;;;4.60;92.50;;;;;;4879377;29;20457;-80
2021/12/08 00:34:31;;;;;;;0.90;0.70;;;4.60;92.50;;;;;;4879555;29;20044;-81
2021/12/08 00:37:00;;;;;;;2.03;0.90;;;4.60;92.50;;;;;;4863892;29;20051;-79
2021/12/08 00:39:26;;;;;;;1.48;0.88;;;4.60;92.50;;;;;;4864084;29;20580;-80
2021/12/08 00:41:52;;;;;;;1.42;0.88;;;4.60;92.50;;;;;;4896403;29;20037;-80
2021/12/08 00:44:18;;;;;;;1.30;0.70;;;4.60;92.50;;;;;;4863865;29;20068;-80
2021/12/08 00:46:44;;;;;;;2.20;0.80;;;4.60;92.60;;;;;;4879014;29;20523;-80
2021/12/08 00:49:12;;;;;;;1.25;0.52;;;4.60;92.60;;;;;;4878964;29;20053;-80
2021/12/08 00:51:38;;;;;;;1.13;0.65;;;4.60;92.60;;;;;;4863971;29;20041;-80
2021/12/08 00:54:04;;;;;;;0.88;0.60;;;4.60;92.60;;;;;;4863647;29;20060;-80
2021/12/08 00:56:30;;;;;;;0.80;0.50;;;4.60;92.60;;;;;;4864578;29;20060;-81
2021/12/08 00:58:56;;;;;;;0.50;0.50;;;4.60;92.60;;;;;;4882154;29;20045;-81
2021/12/08 01:01:22;;;;;;;0.40;0.40;;;4.60;92.70;;;;;;4882287;29;20115;-81
2021/12/08 01:03:49;;;;;;;0.82;0.57;;;4.70;92.70;;;;;;4880463;29;20105;-80
2021/12/08 01:06:17;;;;;;;1.05;0.60;;;4.70;92.70;;;;;;4851313;29;20036;-81
2021/12/08 01:08:44;;;;;;;0.93;0.50;;;4.70;92.70;;;;;;4866586;29;20053;-80
2021/12/08 01:11:13;;;;;;;0.70;0.52;;;4.70;92.70;;;;;;4866502;29;20139;-80
2021/12/08 01:13:39;;;;;;;0.60;0.60;;;4.70;92.70;;;;;;4897045;29;20384;-80
2021/12/08 01:16:05;;;;;;;0.55;0.50;;;4.70;92.70;;;;;;4866351;29;20422;-80
2021/12/08 01:18:32;;;;;;;0.73;0.55;;;4.80;92.70;;;;;;4898539;29;20047;-80
2021/12/08 01:21:00;;;;;;;0.55;0.40;;;4.70;93.00;;;;;;4881823;29;20036;-81
2021/12/08 01:23:27;;;;;;;1.00;0.43;;;4.80;92.70;;;;;;4881867;29;20044;-80
2021/12/08 01:25:54;;;;;;;1.55;0.55;;;4.90;92.70;;;;;;4898390;29;20044;-80
2021/12/08 01:28:22;;;;;;;0.50;0.40;;;4.80;92.70;;;;;;4881610;29;20045;-81
2021/12/08 01:30:49;;;;;;;0.63;0.55;;;4.80;92.70;;;;;;4881531;29;20036;-81
2021/12/08 01:33:16;;;;;;;0.50;0.40;;;4.90;92.70;;;;;;4881557;29;20044;-81
2021/12/08 01:35:42;;;;;;;0.28;0.20;;;4.90;92.70;;;;;;4866328;29;20354;-80
2021/12/08 01:38:08;;;;;;;0.40;0.30;;;4.90;92.70;;;;;;4850774;29;20037;-80
2021/12/08 01:40:34;;;;;;;0.95;0.30;;;4.90;92.70;;;;;;4882146;29;20045;-80
2021/12/08 01:43:02;;;;;;;0.43;0.30;;;5.00;92.80;;;;;;4898364;29;20452;-80
2021/12/08 01:48:10;;;;;;;0.90;0.35;;;5.00;92.80;;;;;;4880617;29;20113;-80
2021/12/08 01:50:38;;;;;;;0.60;0.57;;;5.00;92.80;;;;;;4851079;29;20052;-81
2021/12/08 01:53:06;;;;;;;0.95;0.50;;;5.00;92.80;;;;;;4881384;29;20044;-80
2021/12/08 01:55:32;;;;;;;1.98;0.50;;;5.10;92.80;;;;;;4881883;29;20043;-80
2021/12/08 01:57:58;;;;;;;1.00;0.40;;;5.20;92.70;;;;;;4881609;29;20484;-80
2021/12/08 02:00:33;;;;;;;1.10;0.52;;;5.20;92.70;;;;;;4881168;29;20045;-80
2021/12/08 02:02:59;;;;;;;1.23;0.70;;;5.20;92.70;;;;;;4881660;29;20392;-80
2021/12/08 02:05:26;;;;;;;0.85;0.40;;;5.30;92.60;;;;;;4881698;29;20036;-80
2021/12/08 02:07:52;;;;;;;2.00;0.50;;;5.30;92.60;;;;;;4865459;29;20041;-80
2021/12/08 02:10:19;;;;;;;0.70;0.60;;;5.40;92.60;;;;;;4881093;29;20396;-80
2021/12/08 02:12:46;;;;;;;0.60;0.60;;;5.40;92.60;;;;;;4865617;29;20366;-80
2021/12/08 02:15:16;;;;;;;0.63;0.50;;;5.40;92.60;;;;;;4881205;29;20523;-80
2021/12/08 02:17:43;;;;;;;1.10;0.60;;;5.50;92.60;;;;;;4849195;29;20448;-81
2021/12/08 02:20:11;;;;;;;0.63;0.55;;;5.50;92.50;;;;;;4865824;29;20095;-79
2021/12/08 02:22:37;;;;;;;1.23;0.70;;;5.50;92.50;;;;;;4880972;29;20532;-80
2021/12/08 02:25:06;;;;;;;0.63;0.40;;;5.50;92.50;;;;;;4865475;29;20044;-80
2021/12/08 02:27:33;;;;;;;1.08;0.68;;;5.60;92.60;;;;;;4865102;29;20040;-80
2021/12/08 02:30:09;;;;;;;0.47;0.40;;;5.50;92.60;;;;;;4865332;29;20044;-79
2021/12/08 02:48:40;;;;;;;0.88;0.50;;;5.70;92.50;;;;;;4869051;29;20101;-80
2021/12/08 02:51:06;;;;;;;1.42;0.70;;;5.80;92.60;;;;;;4880441;29;20045;-80
2021/12/08 02:53:33;;;;;;;1.10;0.50;;;5.80;92.60;;;;;;4863194;29;20091;-80
2021/12/08 02:55:59;;;;;;;0.85;0.68;;;5.80;92.50;;;;;;4880874;29;20043;-80
2021/12/08 02:58:25;;;;;;;0.63;0.45;;;5.90;92.60;;;;;;4880113;29;20044;-80
2021/12/08 03:00:57;;;;;;;0.85;0.50;;;5.80;92.50;;;;;;4880542;29;20169;-80
2021/12/08 03:03:22;;;;;;;1.00;0.60;;;5.90;92.60;;;;;;4864719;29;20381;-80
2021/12/08 03:05:48;;;;;;;0.98;0.60;;;5.90;92.60;;;;;;4880582;29;20048;-80
2021/12/08 03:08:14;;;;;;;1.30;0.50;;;5.80;92.60;;;;;;4880174;29;20052;-81
2021/12/08 03:10:44;;;;;;;0.82;0.40;;;5.80;92.60;;;;;;4864784;29;20694;-81
2021/12/08 03:13:11;;;;;;;0.38;0.38;;;5.70;92.60;;;;;;4865090;29;20036;-81
2021/12/08 03:15:37;;;;;;;0.82;0.50;;;5.70;92.70;;;;;;4880198;29;20416;-80
2021/12/08 03:18:04;;;;;;;0.63;0.40;;;5.70;92.70;;;;;;4864854;29;20040;-80
2021/12/08 03:20:46;;;;;;;0.73;0.43;;;5.70;92.80;;;;;;4864009;29;20468;-80
2021/12/08 03:23:20;;;;;;;1.08;0.50;;;5.70;92.80;;;;;;4897331;29;20056;-81
2021/12/08 03:25:55;;;;;;;0.65;0.50;;;5.70;92.90;;;;;;4864784;29;20050;-81
2021/12/08 03:28:25;;;;;;;2.38;0.50;;;5.70;92.90;;;;;;4880106;29;20072;-80
2021/12/08 03:31:01;;;;;;;0.65;0.50;;;5.60;92.80;;;;;;4848696;29;20496;-80
2021/12/08 03:33:28;;;;;;;0.50;0.38;;;5.60;92.90;;;;;;4881431;29;20036;-80
2021/12/08 03:35:54;;;;;;;0.45;0.40;;;5.70;92.90;;;;;;4864414;29;20032;-80
2021/12/08 03:38:21;;;;;;;1.30;0.52;;;5.70;92.90;;;;;;4896625;29;20032;-80
2021/12/08 03:40:48;;;;;;;0.40;0.40;;;5.80;92.90;;;;;;4896713;29;20044;-80
2021/12/08 03:43:17;;;;;;;0.80;0.40;;;5.90;92.90;;;;;;4879634;29;20036;-80
2021/12/08 03:45:47;;;;;;;0.85;0.30;;;5.90;92.80;;;;;;4864344;29;20453;-80
2021/12/08 03:48:19;;;;;;;0.50;0.40;;;5.90;92.80;;;;;;4896387;29;20028;-80
2021/12/08 03:50:45;;;;;;;0.63;0.30;;;5.90;92.80;;;;;;4864434;29;20045;-80
2021/12/08 03:53:12;;;;;;;0.45;0.40;;;6.00;92.80;;;;;;4864330;29;20079;-80
2021/12/08 03:55:40;;;;;;;0.30;0.25;;;6.10;92.80;;;;;;4864670;29;20489;-80
2021/12/08 03:58:06;;;;;;;0.40;0.40;;;6.10;92.80;;;;;;4864187;29;20507;-80
2021/12/08 04:00:32;;;;;;;0.80;0.30;;;6.10;92.70;;;;;;4896853;29;20037;-80
2021/12/08 04:03:02;;;;;;;0.68;0.50;;;6.20;92.60;;;;;;4864127;29;20043;-79
2021/12/08 04:05:43;;;;;;;2.47;0.50;;;6.30;92.60;;;;;;4864403;29;20135;-80
2021/12/08 04:08:16;;;;;;;0.47;0.28;;;6.30;92.60;;;;;;4881539;29;20060;-79
2021/12/08 04:10:44;;;;;;;0.55;0.28;;;6.30;92.50;;;;;;4880637;29;20132;-80
2021/12/08 04:13:10;;;;;;;0.60;0.40;;;6.40;92.50;;;;;;4864725;29;20081;-80
2021/12/08 04:15:36;;;;;;;0.30;0.30;;;6.40;92.50;;;;;;4879410;29;20045;-80
2021/12/08 04:18:02;;;;;;;0.98;0.50;;;6.40;92.50;;;;;;4864211;29;20071;-80
2021/12/08 04:20:33;;;;;;;1.20;0.50;;;6.50;92.50;;;;;;4896069;29;20458;-80
2021/12/08 04:23:01;;;;;;;0.45;0.40;;;6.50;92.60;;;;;;4879463;29;20044;-80
2021/12/08 04:25:32;;;;;;;1.05;0.50;;;6.50;92.50;;;;;;4896005;29;20069;-80
2021/12/08 04:28:00;;;;;;;0.98;0.40;;;6.50;92.50;;;;;;4861480;29;20047;-79
2021/12/08 04:30:36;;;;;;;0.52;0.40;;;6.50;92.50;;;;;;4864550;29;20459;-80
2021/12/08 04:33:03;;;;;;;0.38;0.38;;;6.50;92.60;;;;;;4866096;29;20392;-79
2021/12/08 04:35:29;;;;;;;0.55;0.35;;;6.50;92.60;;;;;;4883080;29;20047;-79
2021/12/08 04:38:00;;;;;;;1.20;0.50;;;6.50;92.60;;;;;;4882709;29;20047;-79
2021/12/08 04:40:35;;;;;;;;;;;6.50;92.50;;;;;;4881103;29;20048;-80
2021/12/08 04:43:13;;;;;;;1.33;0.55;;;6.50;92.50;;;;;;4883591;29;20312;-80
2021/12/08 04:45:58;;;;;;;0.90;0.40;;;6.50;92.50;;;;;;4899482;29;20476;-79
2021/12/08 04:48:43;;;;;;;3.35;0.63;;;6.50;92.50;;;;;;4881545;29;20048;-80
2021/12/08 04:51:37;;;;;;;0.40;0.40;;;6.50;92.50;;;;;;4869346;29;20160;-80
2021/12/08 05:02:38;;;;;;;1.17;0.30;;;6.30;92.50;;;;;;4899097;29;20412;-80
2021/12/08 05:05:10;;;;;;;0.70;0.40;;;6.30;92.60;;;;;;4884661;29;20510;-80
2021/12/08 05:10:17;;;;;;;0.68;0.30;;;6.20;92.60;;;;;;4883781;29;20048;-79
2021/12/08 05:12:46;;;;;;;0.82;0.30;;;6.10;92.60;;;;;;4880416;29;20071;-80
2021/12/08 05:15:23;;;;;;;0.85;0.40;;;6.10;92.70;;;;;;4882156;29;20036;-79
2021/12/08 05:17:55;;;;;;;0.32;0.30;;;6.10;92.70;;;;;;4897544;29;20044;-79
2021/12/08 05:20:32;;;;;;;0.60;0.25;;;6.00;92.70;;;;;;4882074;29;20049;-79
2021/12/08 05:23:08;;;;;;;1.27;0.40;;;5.90;92.80;;;;;;4897439;29;20440;-79
2021/12/08 05:25:36;;;;;;;0.20;0.20;;;5.90;92.80;;;;;;4881273;29;20124;-79
2021/12/08 05:28:07;;;;;;;0.40;0.30;;;5.90;92.90;;;;;;4899132;29;20409;-79
2021/12/08 05:30:40;;;;;;;1.00;0.50;;;5.90;92.90;;;;;;4882182;29;20048;-79
2021/12/08 05:33:07;;;;;;;0.85;0.30;;;5.90;92.90;;;;;;4882874;29;20041;-79
2021/12/08 05:35:35;;;;;;;1.20;0.17;;;5.90;92.80;;;;;;4866596;29;20039;-80
2021/12/08 05:38:01;;;;;;;0.25;0.25;;;6.00;92.90;;;;;;4899009;29;20037;-79
2021/12/08 05:40:32;;;;;;;1.35;0.52;;;5.90;92.80;;;;;;4898818;29;20544;-80
2021/12/08 05:42:58;;;;;;;0.93;0.50;;;6.00;92.80;;;;;;4898449;29;20044;-79
2021/12/08 05:45:24;;;;;;;1.88;0.40;;;6.00;92.80;;;;;;4866257;29;20045;-79
2021/12/08 05:47:52;;;;;;;1.70;0.40;;;5.90;92.70;;;;;;4898721;29;20061;-79
2021/12/08 05:50:44;;;;;;;0.30;0.25;;;6.00;92.70;;;;;;4898728;29;20119;-79
2021/12/08 05:53:10;;;;;;;;;;;5.90;92.60;;;;;;4854984;29;20067;-81
2021/12/08 05:55:37;;;;;;;0.50;0.40;;;5.90;92.60;;;;;;4866158;29;20367;-79
2021/12/08 05:58:05;;;;;;;0.32;0.30;;;5.90;92.60;;;;;;4881498;29;20488;-79
2021/12/08 06:00:37;;;;;;;0.20;0.20;;;5.80;92.60;;;;;;4881359;29;20063;-79
2021/12/08 06:03:03;;;;;;;2.15;0.50;;;5.80;92.60;;;;;;4896671;29;20384;-79
2021/12/08 06:05:31;;;;;;;0.38;0.32;;;5.80;92.60;;;;;;4881518;29;20129;-79
2021/12/08 06:07:57;;;;;;;1.63;0.50;;;5.70;92.70;;;;;;4881564;29;20476;-79
2021/12/08 06:10:29;;;;;;;1.90;0.50;;;5.70;92.70;;;;;;4881743;29;20036;-80
2021/12/08 06:12:56;;;;;;;1.17;0.32;;;5.80;92.70;;;;;;4851092;29;20450;-79
2021/12/08 06:15:22;;;;;;;1.10;0.55;;;5.60;92.70;;;;;;4896750;29;20089;-79
2021/12/08 06:17:48;;;;;;;0.22;0.20;;;5.70;92.70;;;;;;4898442;29;20036;-79
2021/12/08 06:20:15;;;;;;;0.35;0.30;;;5.70;92.70;;;;;;4865246;29;20052;-79
2021/12/08 06:22:42;;;;;;;0.55;0.40;;;5.60;92.70;;;;;;4850502;29;20400;-79
2021/12/08 06:25:10;;;;;;;0.95;0.20;;;5.60;92.70;;;;;;4865576;29;20048;-78
2021/12/08 06:27:36;;;;;;;0.98;0.57;;;5.50;92.70;;;;;;4896200;29;20041;-79
2021/12/08 06:30:06;;;;;;;1.83;0.47;;;5.50;92.70;;;;;;4880456;29;20479;-79
2021/12/08 06:32:32;;;;;;;2.08;0.30;;;5.60;92.70;;;;;;4865634;29;20064;-79
2021/12/08 06:34:58;;;;;;;0.40;0.30;;;5.60;92.70;;;;;;4880666;29;20139;-79
2021/12/08 06:37:29;;;;;;;0.45;0.30;;;5.60;92.70;;;;;;4880630;29;20045;-80
2021/12/08 06:40:07;;;;;;;0.85;0.30;;;5.50;92.70;;;;;;4877718;29;20052;-79
2021/12/08 06:42:37;;;;;;;1.45;0.50;;;5.50;92.70;;;;;;4881883;29;20071;-80
2021/12/08 06:45:10;;;;;;;2.10;0.55;;;5.50;92.70;;;;;;4865547;29;20102;-78
2021/12/08 06:47:36;;;;;;;1.40;0.47;;;5.60;92.60;;;;;;4863183;29;20104;-79
2021/12/08 06:50:09;;;;;;;2.15;0.43;;;5.50;92.60;;;;;;4880561;29;20044;-79
2021/12/08 06:52:38;;;;;;;1.58;0.40;;;5.50;92.50;;;;;;4865638;29;20127;-78
2021/12/08 06:55:17;;;;;;;0.70;0.47;;;5.60;92.60;;;;;;4864037;29;20037;-78
2021/12/08 06:57:48;;;;;;;2.15;0.40;;;5.60;92.50;;;;;;4863727;29;20032;-79
2021/12/08 07:00:24;;;;;;;0.50;0.40;;;5.60;92.40;;;;;;4848976;29;20049;-79
2021/12/08 07:03:04;;;;;;;0.88;0.40;;;5.60;92.40;;;;;;4866409;29;20041;-79
2021/12/08 07:06:03;;;;;;;0.63;0.20;;;5.60;92.50;;;;;;4852335;29;20477;-79
2021/12/08 07:08:22;;;;;;;1.35;0.47;;;5.60;92.40;;;;;;4870092;29;20089;-78
2021/12/08 07:10:49;;;;;;;0.35;0.30;;;5.50;92.40;;;;;;4865143;29;20067;-79
2021/12/08 07:13:20;;;;;;;2.90;0.70;;;5.50;92.40;;;;;;4897543;29;20561;-79
2021/12/08 07:15:55;;;;;;;2.08;0.63;;;5.40;92.30;;;;;;4885016;29;20579;-79
2021/12/08 07:18:28;;;;;;;1.13;0.50;;;5.50;92.40;;;;;;4885130;29;20093;-80
2021/12/08 07:24:43;;;;;;;2.85;0.98;;;5.50;92.40;;;;;;4877025;29;20093;-80
2021/12/08 07:27:39;;;;;;;3.83;0.82;;;5.50;92.30;;;;;;4865272;29;20049;-83
2021/12/08 07:30:52;;;;;;;1.17;0.50;;;5.50;92.30;;;;;;4836379;29;20116;-84
2021/12/08 07:33:18;;;;;;;3.92;0.75;;;5.50;92.30;;;;;;4824828;29;20111;-79
2021/12/08 07:35:49;;;;;;;3.03;0.80;;;5.50;92.20;;;;;;4828296;29;20047;-83
2021/12/08 07:38:18;;;;;;;2.30;0.60;;;5.40;92.10;;;;;;4803552;29;20066;-78
2021/12/08 07:40:55;;;;;;;1.23;0.52;;;5.40;92.20;;;;;;4789048;29;20055;-79
2021/12/08 07:46:26;;;;;;;1.20;0.63;;;5.40;92.20;;;;;;4755581;30;20121;-80
2021/12/08 07:49:16;;;;;;;2.22;0.70;;;5.30;92.20;;;;;;4766532;30;20068;-80
2021/12/08 07:52:12;;;;;;;1.25;0.40;;;5.50;92.20;;;;;;4746789;30;20056;-80
2021/12/08 07:54:56;;;;;;;2.15;0.52;;;5.40;92.20;;;;;;4734392;30;20071;-82
2021/12/08 07:58:10;;;;;;;2.40;0.68;;;5.30;92.20;;;;;;4707322;30;20056;-81
2021/12/08 08:00:44;;;;;;;0.30;0.30;;;5.30;92.20;;;;;;4736370;30;20152;-82
2021/12/08 08:03:14;;;;;;;2.75;0.60;;;5.30;92.20;;;;;;4742562;30;20057;-81
2021/12/08 08:05:41;;;;;;;1.93;0.67;;;5.20;92.30;;;;;;4716345;30;20052;-80
2021/12/08 08:08:13;;;;;;;1.40;0.50;;;5.30;92.30;;;;;;4719678;30;20057;-79
2021/12/08 08:10:44;;;;;;;1.33;0.40;;;5.20;92.30;;;;;;4734420;30;20053;-80
2021/12/08 08:13:12;;;;;;;2.55;0.38;;;5.20;92.20;;;;;;4734881;30;20138;-79
2021/12/08 08:15:44;;;;;;;2.50;0.50;;;5.20;92.20;;;;;;4740294;30;20055;-79
2021/12/08 08:18:12;;;;;;;;;;;5.30;92.30;;;;;;4790095;30;20054;-80
2021/12/08 08:20:49;;;;;;;0.57;0.30;;;5.30;92.20;;;;;;4791425;30;19928;-79
2021/12/08 08:23:18;;;;;;;2.22;0.52;;;5.30;92.20;;;;;;4804562;29;20035;-80
2021/12/08 08:25:46;;;;;;;0.73;0.30;;;5.30;92.40;;;;;;4847384;29;20049;-78
2021/12/08 08:28:12;;;;;;;3.10;0.70;;;5.30;92.00;;;;;;4847015;29;20049;-80
2021/12/08 08:30:52;;;;;;;1.00;0.40;;;5.30;92.00;;;;;;4834656;29;20098;-78
2021/12/08 08:33:20;;;;;;;2.25;0.60;;;5.30;92.00;;;;;;4863829;29;20051;-80
2021/12/08 08:35:51;;;;;;;1.38;0.60;;;5.40;92.00;;;;;;4893107;29;20072;-81
2021/12/08 08:38:19;;;;;;;;;;;5.30;92.00;;;;;;4870037;29;20063;-80
2021/12/08 08:40:51;;;;;;;2.38;0.70;;;5.40;92.00;;;;;;4901712;29;19919;-80
2021/12/08 08:43:18;;;;;;;2.05;0.68;;;5.40;91.90;;;;;;4867810;29;20045;-81
2021/12/08 08:45:52;;;;;;;1.02;0.57;;;5.40;91.90;;;;;;4882147;29;20055;-84
2021/12/08 08:48:30;;;;;;;1.52;0.52;;;5.40;91.90;;;;;;4885051;29;20424;-79
2021/12/08 08:51:03;;;;;;;1.95;0.57;;;5.40;91.90;;;;;;4867554;29;20044;-77
2021/12/08 08:53:32;;;;;;;2.70;0.90;;;5.40;91.80;;;;;;4869797;29;20048;-80
2021/12/08 08:56:12;;;;;;;1.42;0.60;;;5.40;91.80;;;;;;4883440;29;20045;-79
2021/12/08 08:58:55;;;;;;;3.95;1.00;;;5.50;91.80;;;;;;4867242;29;20079;-82
2021/12/08 09:01:29;;;;;;;2.72;0.88;;;5.60;91.80;;;;;;4840245;29;20074;-80
2021/12/08 09:04:24;;;;;;;1.67;0.60;;;5.40;91.60;;;;;;4795854;29;20066;-82
2021/12/08 09:07:07;;;;;;;1.33;0.40;;;5.60;91.70;;;;;;4822114;29;20122;-78
2021/12/08 09:09:40;;;;;;;1.75;0.63;;;5.40;91.70;;;;;;4811059;29;20727;-81
2021/12/08 09:12:15;;;;;;;1.80;0.68;;;5.40;91.70;;;;;;4826876;29;20046;-80
2021/12/08 09:14:54;;;;;;;2.60;0.90;;;5.40;91.70;;;;;;4841064;29;20046;-77
2021/12/08 09:17:26;;;;;;;1.83;0.80;;;5.50;91.70;;;;;;4841644;29;20116;-78
2021/12/08 09:20:03;;;;;;;2.08;0.90;;;5.50;91.70;;;;;;4826783;29;20441;-80
2021/12/08 09:22:40;;;;;;;3.08;0.80;;;5.50;91.60;;;;;;4805692;29;20126;-77
2021/12/08 09:25:25;;;;;;;3.20;0.95;;;5.50;91.60;;;;;;4775914;29;20039;-79
2021/12/08 09:27:54;;;;;;;4.28;1.10;;;5.60;91.60;;;;;;4791339;29;20204;-80
2021/12/08 09:30:34;;;;;;;3.05;0.73;;;5.50;91.50;;;;;;4776304;29;20074;-79
2021/12/08 09:33:06;;;;;;;1.38;0.60;;;5.50;91.50;;;;;;4839556;29;20065;-80
2021/12/08 09:35:42;;;;;;;3.00;0.85;;;5.50;91.50;;;;;;4859606;29;20505;-81
2021/12/08 09:38:17;;;;;;;1.65;0.73;;;5.50;91.50;;;;;;4813975;29;20076;-79
2021/12/08 09:40:50;;;;;;;0.90;0.52;;;5.60;91.50;;;;;;4856204;29;20107;-78
2021/12/08 09:43:23;;;;;;;1.70;0.73;;;5.60;91.50;;;;;;4844444;29;20053;-78
2021/12/08 09:45:56;;;;;;;1.35;0.70;;;5.60;91.50;;;;;;4861763;29;20042;-78
2021/12/08 09:48:27;;;;;;;1.58;0.68;;;5.60;91.50;;;;;;4819261;29;20052;-78
2021/12/08 09:50:54;;;;;;;1.75;0.70;;;5.60;91.50;;;;;;4846250;29;20106;-77
2021/12/08 09:53:34;;;;;;;0.85;0.50;;;5.60;91.40;;;;;;4863002;29;20063;-79
2021/12/08 09:56:03;;;;;;;1.90;0.45;;;5.60;91.40;;;;;;4859825;29;20513;-78
2021/12/08 09:58:28;;;;;;;1.65;0.43;;;5.70;91.40;;;;;;4830077;29;20048;-79
2021/12/08 10:00:59;;;;;;;2.20;0.60;;;5.70;91.40;;;;;;4845848;29;20474;-82
2021/12/08 10:07:29;;;;;;;1.67;0.85;;;5.80;91.30;;;;;;4856464;29;20106;-80
2021/12/08 10:09:55;;;;;;;1.42;0.70;;;5.90;91.20;;;;;;4831196;29;20064;-78
2021/12/08 10:12:21;;;;;;;0.90;0.70;;;5.90;91.20;;;;;;4854085;29;20033;-79
2021/12/08 10:14:50;;;;;;;1.67;0.88;;;5.90;91.10;;;;;;4843645;29;20113;-80
2021/12/08 10:17:18;;;;;;;1.00;0.65;;;5.80;91.10;;;;;;4827898;29;20043;-78
2021/12/08 10:19:46;;;;;;;1.70;0.50;;;5.80;91.00;;;;;;4850933;29;20056;-79
2021/12/08 10:22:17;;;;;;;2.95;0.60;;;5.90;91.00;;;;;;4866108;29;20040;-79
2021/12/08 10:25:04;;;;;;;2.05;0.63;;;6.20;91.10;;;;;;4882463;29;20033;-81
2021/12/08 10:27:30;;;;;;;1.33;0.68;;;5.90;91.00;;;;;;4853674;29;20040;-77
2021/12/08 10:30:23;;;;;;;1.88;0.75;;;5.90;91.00;;;;;;4880179;29;20520;-76
2021/12/08 10:32:50;;;;;;;1.58;0.52;;;6.00;91.00;;;;;;4882659;29;20036;-77
2021/12/08 10:35:44;;;;;;;1.73;0.60;;;6.00;91.00;;;;;;4851931;29;20048;-80
2021/12/08 10:38:11;;;;;;;1.20;0.85;;;6.10;91.00;;;;;;4881235;29;20123;-79
2021/12/08 10:40:39;;;;;;;1.23;0.50;;;6.10;90.90;;;;;;4884192;29;20068;-79
2021/12/08 10:43:14;;;;;;;1.05;0.40;;;6.20;90.90;;;;;;4869088;29;20048;-79
2021/12/08 10:45:40;;;;;;;1.08;0.50;;;6.20;90.80;;;;;;4881360;29;20116;-81
2021/12/08 10:48:07;;;;;;;2.22;0.45;;;6.30;90.80;;;;;;4846345;29;20041;-78
2021/12/08 10:56:02;;;;;;;2.55;0.93;;;6.30;90.70;;;;;;4877429;29;20182;-82
2021/12/08 10:58:31;;;;;;;1.98;0.60;;;6.40;90.70;;;;;;4861320;29;20222;-78
2021/12/08 11:01:05;;;;;;;0.98;0.60;;;6.40;90.60;;;;;;4832384;29;20136;-78
2021/12/08 11:03:32;;;;;;;1.92;0.47;;;6.40;90.60;;;;;;4839934;29;20047;-80
2021/12/08 11:06:03;;;;;;;1.27;0.63;;;6.40;90.60;;;;;;4854350;29;20042;-77
2021/12/08 11:08:39;;;;;;;1.42;0.70;;;6.40;90.60;;;;;;4865657;29;20125;-81
2021/12/08 11:11:12;;;;;;;1.05;0.50;;;6.50;90.60;;;;;;4839460;29;20196;-80
2021/12/08 11:13:43;;;;;;;1.65;0.60;;;6.50;90.60;;;;;;4838790;29;20038;-82
2021/12/08 11:16:15;;;;;;;1.73;0.60;;;6.50;90.50;;;;;;4881490;29;20128;-81
2021/12/08 11:18:45;;;;;;;1.80;0.40;;;6.60;90.50;;;;;;4857406;29;20124;-81
2021/12/08 11:21:21;;;;;;;1.88;0.75;;;6.60;90.50;;;;;;4885101;29;20041;-81
2021/12/08 11:23:50;;;;;;;1.00;0.52;;;6.60;90.50;;;;;;4886831;29;20047;-81
2021/12/08 11:26:25;;;;;;;2.35;0.88;;;6.60;90.50;;;;;;4887697;29;20053;-80
2021/12/08 11:29:05;;;;;;;2.92;0.63;;;6.60;90.50;;;;;;4885385;29;20075;-81
2021/12/08 11:31:38;;;;;;;0.40;0.40;;;6.60;90.50;;;;;;4902357;29;20496;-81
2021/12/08 11:34:13;;;;;;;2.03;0.65;;;6.70;90.50;;;;;;4888954;29;20037;-82
2021/12/08 11:36:40;;;;;;;2.67;0.60;;;6.60;90.50;;;;;;4883157;29;20036;-80
2021/12/08 11:39:26;;;;;;;0.85;0.50;;;6.70;90.80;;;;;;4870165;29;20049;-79
2021/12/08 11:41:59;;;;;;;0.68;0.60;;;6.70;90.50;;;;;;4902772;29;20100;-79
2021/12/08 11:44:29;;;;;;;0.88;0.50;;;6.80;90.40;;;;;;4903175;29;20033;-79
2021/12/08 11:47:03;;;;;;;0.95;0.60;;;6.80;90.40;;;;;;4888121;29;20051;-80
2021/12/08 11:49:29;;;;;;;2.10;0.70;;;6.80;90.40;;;;;;4887505;29;20033;-79
2021/12/08 11:52:01;;;;;;;2.00;0.75;;;6.80;90.40;;;;;;4904370;29;20043;-79
2021/12/08 11:54:51;;;;;;;1.60;0.60;;;6.80;90.40;;;;;;4872078;29;20077;-79
2021/12/08 11:57:23;;;;;;;1.88;0.70;;;6.80;90.30;;;;;;4871487;29;20091;-79
2021/12/08 12:00:01;;;;;;;2.03;0.60;;;6.90;90.30;;;;;;4890753;29;21339;-79
2021/12/08 12:02:31;;;;;;;3.53;0.75;;;6.80;90.20;;;;;;4890485;29;20143;-79
2021/12/08 12:04:59;;;;;;;1.05;0.60;;;6.70;90.20;;;;;;4907867;29;20481;-79
2021/12/08 12:07:27;;;;;;;2.17;0.50;;;6.80;90.30;;;;;;4889043;29;20473;-80
2021/12/08 12:09:58;;;;;;;0.60;0.43;;;6.80;90.30;;;;;;4849501;29;20079;-82
2021/12/08 12:12:30;;;;;;;0.77;0.40;;;6.80;90.40;;;;;;4887262;29;20037;-80
2021/12/08 12:15:10;;;;;;;0.43;0.40;;;6.70;90.40;;;;;;4861753;29;20135;-80
2021/12/08 12:17:43;;;;;;;0.50;0.30;;;6.70;90.40;;;;;;4805894;29;20049;-83
2021/12/08 12:20:51;;;;;;;0.40;0.30;;;6.70;90.40;;;;;;4811283;29;20078;-83
2021/12/08 12:23:44;;;;;;;0.80;0.40;;;6.60;90.40;;;;;;4694948;30;20053;-83
2021/12/08 12:26:50;;;;;;;0.68;0.40;;;6.70;90.50;;;;;;4690798;30;20137;-84
2021/12/08 12:32:51;;;;;;;0.90;0.57;;;6.70;90.50;;;;;;4645350;30;20047;-80
2021/12/08 12:38:39;;;;;;;0.85;0.50;;;6.70;90.40;;;;;;4626603;30;20087;-83
2021/12/08 12:41:36;;;;;;;1.63;0.63;;;6.80;90.50;;;;;;4610695;31;20052;-83
2021/12/08 12:47:28;;;;;;;1.38;0.60;;;6.80;90.40;;;;;;4576813;31;20540;-80
2021/12/08 12:50:25;;;;;;;1.20;0.80;;;6.80;90.40;;;;;;4606904;31;20121;-83
2021/12/08 12:53:03;;;;;;;1.30;0.60;;;6.80;90.40;;;;;;4598802;30;20096;-82
2021/12/08 12:55:33;;;;;;;1.45;0.60;;;6.80;90.40;;;;;;4638747;30;20077;-82
2021/12/08 12:58:13;;;;;;;2.00;0.60;;;6.90;90.40;;;;;;4672303;30;20046;-82
2021/12/08 13:00:43;;;;;;;0.85;0.63;;;6.90;90.30;;;;;;4700321;30;20049;-81
2021/12/08 13:03:34;;;;;;;0.60;0.60;;;6.90;90.30;;;;;;4745973;30;20044;-82
2021/12/08 13:06:00;;;;;;;1.02;0.43;;;6.90;90.30;;;;;;4740045;30;20127;-82
2021/12/08 13:08:38;;;;;;;1.13;0.57;;;6.90;90.30;;;;;;4736999;30;20079;-84
2021/12/08 13:11:45;;;;;;;1.90;0.65;;;6.90;90.30;;;;;;4770641;30;20051;-86
2021/12/08 13:14:24;;;;;;;1.08;0.60;;;6.90;90.50;;;;;;4740665;30;20148;-86
2021/12/08 13:17:10;;;;;;;1.42;0.70;;;7.00;90.20;;;;;;4741045;30;20187;-85
2021/12/08 13:19:40;;;;;;;0.90;0.65;;;6.80;90.20;;;;;;4719884;30;20148;-83
2021/12/08 13:22:06;;;;;;;1.77;0.70;;;6.80;90.30;;;;;;4764624;30;20052;-84
2021/12/08 13:24:39;;;;;;;0.55;0.50;;;6.80;90.30;;;;;;4818169;29;20450;-82
2021/12/08 13:27:09;;;;;;;0.50;0.50;;;6.80;90.30;;;;;;4850517;29;20061;-81
2021/12/08 13:29:39;;;;;;;1.70;0.60;;;6.70;90.30;;;;;;4873174;29;20105;-81
2021/12/08 13:32:13;;;;;;;1.30;0.70;;;6.80;90.30;;;;;;4838997;29;20034;-80
2021/12/08 13:34:44;;;;;;;0.82;0.50;;;6.80;90.30;;;;;;4839862;29;20417;-82
2021/12/08 13:37:16;;;;;;;0.53;0.50;;;6.80;90.30;;;;;;4853607;29;20066;-80
2021/12/08 13:39:44;;;;;;;1.17;0.40;;;6.80;90.30;;;;;;4830661;29;20298;-81
2021/12/08 13:42:14;;;;;;;0.47;0.40;;;6.80;90.30;;;;;;4854854;29;20050;-80
2021/12/08 13:45:02;;;;;;;1.48;0.50;;;6.80;90.30;;;;;;4847095;29;20029;-85
2021/12/08 13:47:35;;;;;;;1.23;0.50;;;6.70;90.30;;;;;;4834892;29;20041;-86
2021/12/08 13:50:10;;;;;;;0.82;0.52;;;6.80;90.40;;;;;;4839426;29;20060;-85
2021/12/08 13:52:43;;;;;;;2.28;0.50;;;6.80;90.40;;;;;;4852272;29;20040;-80
2021/12/08 13:55:21;;;;;;;1.38;0.50;;;7.00;90.30;;;;;;4872845;29;20137;-81
2021/12/08 13:58:00;;;;;;;0.45;0.45;;;6.90;90.20;;;;;;4884413;29;20068;-83
2021/12/08 14:00:30;;;;;;;2.85;0.80;;;6.90;90.20;;;;;;4877557;29;20505;-83
2021/12/08 14:03:06;;;;;;;1.67;0.50;;;6.90;90.10;;;;;;4867503;29;20490;-82
2021/12/08 14:05:36;;;;;;;0.30;0.30;;;6.90;90.30;;;;;;4870481;29;20037;-81
2021/12/08 14:08:07;;;;;;;1.10;0.60;;;6.90;90.10;;;;;;4866203;29;20544;-84
2021/12/08 14:10:38;;;;;;;1.42;0.60;;;6.80;90.00;;;;;;4847367;29;20048;-78
2021/12/08 14:13:08;;;;;;;0.50;0.40;;;6.90;90.00;;;;;;4882731;29;20068;-77
2021/12/08 14:15:56;;;;;;;1.17;0.55;;;6.90;90.00;;;;;;4884881;29;20037;-78
2021/12/08 14:18:28;;;;;;;2.13;0.77;;;6.90;90.00;;;;;;4858199;29;20051;-77
2021/12/08 14:21:00;;;;;;;0.57;0.50;;;6.90;90.00;;;;;;4886903;29;20140;-77
2021/12/08 14:23:31;;;;;;;1.45;0.65;;;6.90;90.00;;;;;;4895178;29;20032;-78